VTK601 USSS-UZTT
Flight info
| Callsign | VTK601 |
|---|---|
| Flight time | 2h 30m |
| Altitude | 39000 |
| Route | LBN DCT KST DCT ARK DCT DZG DCT TRK DCT TKT |
| Aircraft | A388/J-SADE2E3FGHIJ3J4J5M1RWXY/LB1D1 |
Departure
| Time | 2026-04-22 09:28 |
|---|---|
| Airport | Koltsovo Airport (USSS) |
Arrival
| Time | 2026-04-22 11:58 |
|---|---|
| Airport | Tashkent International Airport (UZTT) |
| Time | Latitude | Longitude | Altitude | Speed | Heading |
|---|---|---|---|---|---|
| 2026-04-22 09:15 | 56.74900 | 60.80346 | 781 ft | 0 kts | 0° |
| 2026-04-22 09:22 | 56.74888 | 60.80346 | 781 ft | 2 kts | 0° |
| 2026-04-22 09:22 | 56.74871 | 60.80345 | 781 ft | 2 kts | 5° |
| 2026-04-22 09:23 | 56.74858 | 60.80328 | 782 ft | 2 kts | 45° |
| 2026-04-22 09:23 | 56.74855 | 60.80300 | 782 ft | 2 kts | 93° |
| 2026-04-22 09:23 | 56.74855 | 60.80299 | 782 ft | 0 kts | 93° |
| 2026-04-22 09:25 | 56.74855 | 60.80300 | 781 ft | 1 kts | 93° |
| 2026-04-22 09:25 | 56.74853 | 60.80456 | 781 ft | 25 kts | 90° |
| 2026-04-22 09:25 | 56.74853 | 60.80771 | 781 ft | 24 kts | 90° |
| 2026-04-22 09:25 | 56.74859 | 60.81088 | 781 ft | 27 kts | 86° |
| 2026-04-22 09:26 | 56.74862 | 60.81443 | 781 ft | 28 kts | 91° |
| 2026-04-22 09:26 | 56.74860 | 60.81778 | 781 ft | 27 kts | 95° |
| 2026-04-22 09:26 | 56.74794 | 60.82085 | 781 ft | 21 kts | 118° |
| 2026-04-22 09:26 | 56.74686 | 60.82201 | 781 ft | 18 kts | 179° |
| 2026-04-22 09:27 | 56.74563 | 60.82193 | 781 ft | 17 kts | 181° |
| 2026-04-22 09:27 | 56.74482 | 60.82103 | 781 ft | 13 kts | 251° |
| 2026-04-22 09:27 | 56.74475 | 60.81908 | 781 ft | 34 kts | 270° |
| 2026-04-22 09:27 | 56.74474 | 60.80971 | 781 ft | 108 kts | 270° |
| 2026-04-22 09:28 | 56.74477 | 60.79325 | 873 ft | 143 kts | 268° |
| 2026-04-22 09:28 | 56.74482 | 60.77516 | 1429 ft | 143 kts | 266° |
| 2026-04-22 09:28 | 56.74492 | 60.75680 | 2026 ft | 146 kts | 266° |
| 2026-04-22 09:28 | 56.74504 | 60.73806 | 2457 ft | 154 kts | 267° |
| 2026-04-22 09:29 | 56.74506 | 60.71729 | 2694 ft | 173 kts | 267° |
| 2026-04-22 09:29 | 56.74502 | 60.69425 | 2830 ft | 191 kts | 268° |
| 2026-04-22 09:29 | 56.74501 | 60.66921 | 2972 ft | 205 kts | 268° |
| 2026-04-22 09:29 | 56.74502 | 60.64162 | 3284 ft | 228 kts | 268° |
| 2026-04-22 09:30 | 56.74501 | 60.61206 | 3864 ft | 239 kts | 268° |
| 2026-04-22 09:30 | 56.74495 | 60.58153 | 4722 ft | 243 kts | 268° |
| 2026-04-22 09:30 | 56.74526 | 60.55087 | 5737 ft | 240 kts | 269° |
| 2026-04-22 09:30 | 56.74229 | 60.52071 | 6547 ft | 245 kts | 248° |
| 2026-04-22 09:31 | 56.73390 | 60.49424 | 7471 ft | 248 kts | 232° |
| 2026-04-22 09:31 | 56.72033 | 60.47429 | 8333 ft | 258 kts | 211° |
| 2026-04-22 09:31 | 56.70262 | 60.46569 | 9194 ft | 273 kts | 187° |
| 2026-04-22 09:31 | 56.68315 | 60.47215 | 9979 ft | 293 kts | 163° |
| 2026-04-22 09:32 | 56.66532 | 60.49356 | 10303 ft | 324 kts | 143° |
| 2026-04-22 09:32 | 56.64897 | 60.52314 | 10512 ft | 347 kts | 138° |
| 2026-04-22 09:32 | 56.63216 | 60.55608 | 10913 ft | 360 kts | 137° |
| 2026-04-22 09:32 | 56.61501 | 60.58959 | 11566 ft | 364 kts | 138° |
| 2026-04-22 09:33 | 56.59744 | 60.62311 | 12231 ft | 368 kts | 139° |
| 2026-04-22 09:33 | 56.57949 | 60.65661 | 12931 ft | 373 kts | 140° |
| 2026-04-22 09:33 | 56.56119 | 60.69039 | 13599 ft | 377 kts | 140° |
| 2026-04-22 09:33 | 56.54266 | 60.72431 | 14223 ft | 380 kts | 140° |
| 2026-04-22 09:34 | 56.52397 | 60.75847 | 14881 ft | 383 kts | 140° |
| 2026-04-22 09:34 | 56.50507 | 60.79293 | 15505 ft | 386 kts | 141° |
| 2026-04-22 09:34 | 56.48604 | 60.82762 | 16133 ft | 389 kts | 141° |
| 2026-04-22 09:35 | 56.44752 | 60.89772 | 17369 ft | 396 kts | 141° |
| 2026-04-22 09:35 | 56.42804 | 60.93306 | 17920 ft | 399 kts | 141° |
| 2026-04-22 09:35 | 56.40853 | 60.96845 | 18612 ft | 396 kts | 142° |
| 2026-04-22 09:35 | 56.38893 | 61.00387 | 19070 ft | 401 kts | 142° |
| 2026-04-22 09:36 | 56.36847 | 61.03796 | 19557 ft | 399 kts | 149° |
| 2026-04-22 09:36 | 56.34697 | 61.06993 | 20042 ft | 402 kts | 149° |
| 2026-04-22 09:36 | 56.32540 | 61.10227 | 20540 ft | 405 kts | 149° |
| 2026-04-22 09:36 | 56.30362 | 61.13493 | 21014 ft | 408 kts | 149° |
| 2026-04-22 09:37 | 56.28173 | 61.16777 | 21504 ft | 411 kts | 150° |
| 2026-04-22 09:37 | 56.25965 | 61.20085 | 21988 ft | 414 kts | 150° |
| 2026-04-22 09:37 | 56.23739 | 61.23417 | 22478 ft | 418 kts | 150° |
| 2026-04-22 09:37 | 56.21495 | 61.26767 | 22901 ft | 420 kts | 150° |
| 2026-04-22 09:38 | 56.19250 | 61.30115 | 23523 ft | 419 kts | 150° |
| 2026-04-22 09:38 | 56.17002 | 61.33464 | 23922 ft | 421 kts | 150° |
| 2026-04-22 09:38 | 56.14737 | 61.36826 | 24323 ft | 424 kts | 151° |
| 2026-04-22 09:38 | 56.12457 | 61.40205 | 24760 ft | 426 kts | 151° |
| 2026-04-22 09:39 | 56.10171 | 61.43588 | 25195 ft | 428 kts | 151° |
| 2026-04-22 09:39 | 56.07867 | 61.46993 | 25644 ft | 430 kts | 151° |
| 2026-04-22 09:39 | 56.05552 | 61.50410 | 26120 ft | 433 kts | 151° |
| 2026-04-22 09:39 | 56.03220 | 61.53846 | 26597 ft | 435 kts | 152° |
| 2026-04-22 09:40 | 56.00878 | 61.57294 | 27096 ft | 438 kts | 152° |
| 2026-04-22 09:40 | 55.98515 | 61.60765 | 27581 ft | 441 kts | 152° |
| 2026-04-22 09:40 | 55.96141 | 61.64246 | 28094 ft | 444 kts | 152° |
| 2026-04-22 09:40 | 55.93714 | 61.67617 | 28597 ft | 437 kts | 159° |
| 2026-04-22 09:41 | 55.91059 | 61.70014 | 29080 ft | 420 kts | 172° |
| 2026-04-22 09:41 | 55.89226 | 61.70947 | 29419 ft | 409 kts | 180° |
| 2026-04-22 09:41 | 55.86445 | 61.71447 | 29911 ft | 396 kts | 191° |
| 2026-04-22 09:41 | 55.83737 | 61.70952 | 30277 ft | 388 kts | 200° |
| 2026-04-22 09:42 | 55.81087 | 61.69926 | 30591 ft | 393 kts | 200° |
| 2026-04-22 09:42 | 55.78396 | 61.68923 | 30950 ft | 397 kts | 199° |
| 2026-04-22 09:42 | 55.75668 | 61.67928 | 31289 ft | 403 kts | 199° |
| 2026-04-22 09:42 | 55.72904 | 61.66929 | 31626 ft | 408 kts | 199° |
| 2026-04-22 09:43 | 55.70111 | 61.65921 | 31986 ft | 411 kts | 198° |
| 2026-04-22 09:43 | 55.67300 | 61.64905 | 32323 ft | 416 kts | 198° |
| 2026-04-22 09:43 | 55.64448 | 61.63875 | 32657 ft | 420 kts | 198° |
| 2026-04-22 09:43 | 55.61566 | 61.62832 | 33008 ft | 425 kts | 198° |
| 2026-04-22 09:44 | 55.58652 | 61.61778 | 33347 ft | 430 kts | 198° |
| 2026-04-22 09:44 | 55.55707 | 61.60713 | 33668 ft | 434 kts | 198° |
| 2026-04-22 09:44 | 55.52731 | 61.59642 | 33960 ft | 439 kts | 197° |
| 2026-04-22 09:44 | 55.49723 | 61.58562 | 34246 ft | 443 kts | 197° |
| 2026-04-22 09:45 | 55.46691 | 61.57472 | 34596 ft | 446 kts | 197° |
| 2026-04-22 09:45 | 55.43646 | 61.56379 | 34995 ft | 447 kts | 197° |
| 2026-04-22 09:45 | 55.40590 | 61.55290 | 35380 ft | 449 kts | 197° |
| 2026-04-22 09:45 | 55.37524 | 61.54196 | 35772 ft | 450 kts | 196° |
| 2026-04-22 09:46 | 55.34400 | 61.53521 | 36163 ft | 458 kts | 187° |
| 2026-04-22 09:46 | 55.31184 | 61.53834 | 36532 ft | 468 kts | 176° |
| 2026-04-22 09:46 | 55.27988 | 61.55185 | 36923 ft | 478 kts | 166° |
| 2026-04-22 09:46 | 55.24922 | 61.57573 | 37305 ft | 488 kts | 156° |
| 2026-04-22 09:47 | 55.21989 | 61.60614 | 37689 ft | 490 kts | 155° |
| 2026-04-22 09:47 | 55.19051 | 61.63641 | 38092 ft | 490 kts | 155° |
| 2026-04-22 09:47 | 55.16105 | 61.66651 | 38472 ft | 491 kts | 155° |
| 2026-04-22 09:47 | 55.13146 | 61.69658 | 38704 ft | 493 kts | 155° |
| 2026-04-22 09:48 | 55.07208 | 61.75665 | 38744 ft | 490 kts | 155° |
| 2026-04-22 09:48 | 55.01288 | 61.81627 | 38743 ft | 492 kts | 155° |
| 2026-04-22 09:49 | 54.95357 | 61.87587 | 38737 ft | 492 kts | 155° |
| 2026-04-22 09:49 | 54.89417 | 61.93539 | 38713 ft | 492 kts | 155° |
| 2026-04-22 09:50 | 54.83501 | 61.99436 | 38747 ft | 490 kts | 156° |
| 2026-04-22 09:50 | 54.77595 | 62.05314 | 38742 ft | 489 kts | 156° |
| 2026-04-22 09:51 | 54.71702 | 62.11166 | 38733 ft | 488 kts | 156° |
| 2026-04-22 09:51 | 54.65800 | 62.16993 | 38719 ft | 487 kts | 156° |
| 2026-04-22 09:52 | 54.59917 | 62.22787 | 38734 ft | 487 kts | 156° |
| 2026-04-22 09:52 | 54.54020 | 62.28571 | 38739 ft | 488 kts | 156° |
| 2026-04-22 09:53 | 54.48115 | 62.34338 | 38751 ft | 488 kts | 156° |
| 2026-04-22 09:53 | 54.42208 | 62.40102 | 38751 ft | 488 kts | 156° |
| 2026-04-22 09:54 | 54.36290 | 62.45850 | 38763 ft | 489 kts | 156° |
| 2026-04-22 09:54 | 54.30362 | 62.51594 | 38770 ft | 490 kts | 156° |
| 2026-04-22 09:55 | 54.24425 | 62.57322 | 38771 ft | 489 kts | 156° |
| 2026-04-22 09:55 | 54.18489 | 62.63031 | 38777 ft | 489 kts | 156° |
| 2026-04-22 09:56 | 54.12555 | 62.68719 | 38773 ft | 489 kts | 156° |
| 2026-04-22 09:56 | 54.06624 | 62.74389 | 38770 ft | 489 kts | 156° |
| 2026-04-22 09:57 | 54.00692 | 62.80037 | 38766 ft | 489 kts | 156° |
| 2026-04-22 09:57 | 53.94764 | 62.85663 | 38769 ft | 487 kts | 156° |
| 2026-04-22 09:58 | 53.88845 | 62.91262 | 38776 ft | 487 kts | 157° |
| 2026-04-22 09:58 | 53.82927 | 62.96835 | 38773 ft | 487 kts | 157° |
| 2026-04-22 09:59 | 53.77008 | 63.02402 | 38773 ft | 487 kts | 157° |
| 2026-04-22 09:59 | 53.71080 | 63.07959 | 38773 ft | 487 kts | 157° |
| 2026-04-22 10:00 | 53.65149 | 63.13495 | 38784 ft | 487 kts | 157° |
| 2026-04-22 10:00 | 53.59212 | 63.19027 | 38786 ft | 488 kts | 157° |
| 2026-04-22 10:01 | 53.53267 | 63.24542 | 38792 ft | 488 kts | 157° |
| 2026-04-22 10:01 | 53.47318 | 63.30040 | 38792 ft | 488 kts | 157° |
| 2026-04-22 10:02 | 53.41362 | 63.35531 | 38798 ft | 488 kts | 157° |
| 2026-04-22 10:02 | 53.35417 | 63.40998 | 38799 ft | 487 kts | 157° |
| 2026-04-22 10:03 | 53.29482 | 63.46435 | 38784 ft | 487 kts | 157° |
| 2026-04-22 10:03 | 53.23536 | 63.51862 | 38802 ft | 487 kts | 157° |
| 2026-04-22 10:04 | 53.17683 | 63.57602 | 38804 ft | 492 kts | 150° |
| 2026-04-22 10:04 | 53.12234 | 63.64626 | 38803 ft | 495 kts | 147° |
| 2026-04-22 10:05 | 53.06825 | 63.71725 | 38792 ft | 495 kts | 148° |
| 2026-04-22 10:05 | 53.01401 | 63.78782 | 38788 ft | 495 kts | 148° |
| 2026-04-22 10:06 | 52.95963 | 63.85815 | 38788 ft | 496 kts | 148° |
| 2026-04-22 10:06 | 52.90517 | 63.92831 | 38790 ft | 496 kts | 148° |
| 2026-04-22 10:07 | 52.85069 | 63.99830 | 38779 ft | 496 kts | 148° |
| 2026-04-22 10:07 | 52.79612 | 64.06820 | 38782 ft | 496 kts | 148° |
| 2026-04-22 10:08 | 52.74147 | 64.13792 | 38801 ft | 497 kts | 148° |
| 2026-04-22 10:08 | 52.68664 | 64.20760 | 38800 ft | 498 kts | 148° |
| 2026-04-22 10:09 | 52.63182 | 64.27719 | 38791 ft | 497 kts | 149° |
| 2026-04-22 10:09 | 52.57697 | 64.34651 | 38790 ft | 497 kts | 149° |
| 2026-04-22 10:10 | 52.52210 | 64.41561 | 38795 ft | 497 kts | 149° |
| 2026-04-22 10:10 | 52.46717 | 64.48458 | 38795 ft | 497 kts | 149° |
| 2026-04-22 10:11 | 52.41237 | 64.55320 | 38792 ft | 496 kts | 149° |
| 2026-04-22 10:11 | 52.35753 | 64.62160 | 38787 ft | 495 kts | 149° |
| 2026-04-22 10:12 | 52.30265 | 64.68977 | 38787 ft | 495 kts | 149° |
| 2026-04-22 10:12 | 52.24784 | 64.75776 | 38766 ft | 495 kts | 149° |
| 2026-04-22 10:13 | 52.19306 | 64.82551 | 38782 ft | 494 kts | 149° |
| 2026-04-22 10:13 | 52.13827 | 64.89304 | 38781 ft | 494 kts | 149° |
| 2026-04-22 10:14 | 52.08353 | 64.96027 | 38775 ft | 493 kts | 149° |
| 2026-04-22 10:14 | 52.04875 | 65.00284 | 38743 ft | 493 kts | 149° |
| 2026-04-22 10:15 | 51.99402 | 65.06966 | 38783 ft | 491 kts | 149° |
| 2026-04-22 10:15 | 51.93937 | 65.13619 | 38778 ft | 491 kts | 149° |
| 2026-04-22 10:16 | 51.88480 | 65.20241 | 38768 ft | 490 kts | 150° |
| 2026-04-22 10:16 | 51.83026 | 65.26845 | 38775 ft | 489 kts | 149° |
| 2026-04-22 10:17 | 51.77578 | 65.33421 | 38769 ft | 488 kts | 149° |
| 2026-04-22 10:17 | 51.72139 | 65.39964 | 38764 ft | 487 kts | 150° |
| 2026-04-22 10:18 | 51.66703 | 65.46482 | 38760 ft | 487 kts | 150° |
| 2026-04-22 10:18 | 51.61269 | 65.52982 | 38760 ft | 486 kts | 150° |
| 2026-04-22 10:19 | 51.55837 | 65.59451 | 38759 ft | 486 kts | 150° |
| 2026-04-22 10:19 | 51.50397 | 65.65915 | 38760 ft | 486 kts | 150° |
| 2026-04-22 10:20 | 51.44954 | 65.72362 | 38754 ft | 486 kts | 150° |
| 2026-04-22 10:20 | 51.39513 | 65.78785 | 38753 ft | 486 kts | 150° |
| 2026-04-22 10:21 | 51.34060 | 65.85207 | 38761 ft | 487 kts | 150° |
| 2026-04-22 10:21 | 51.29521 | 65.90536 | 38763 ft | 487 kts | 150° |
| 2026-04-22 10:22 | 51.24060 | 65.96930 | 38746 ft | 487 kts | 150° |
| 2026-04-22 10:22 | 51.18610 | 66.03295 | 38774 ft | 485 kts | 150° |
| 2026-04-22 10:23 | 51.13168 | 66.09631 | 38770 ft | 484 kts | 150° |
| 2026-04-22 10:23 | 51.07732 | 66.15937 | 38758 ft | 483 kts | 150° |
| 2026-04-22 10:24 | 51.02296 | 66.22226 | 38736 ft | 483 kts | 150° |
| 2026-04-22 10:24 | 50.96871 | 66.28486 | 38738 ft | 482 kts | 150° |
| 2026-04-22 10:25 | 50.91438 | 66.34734 | 38742 ft | 482 kts | 151° |
| 2026-04-22 10:25 | 50.86006 | 66.40963 | 38741 ft | 482 kts | 151° |
| 2026-04-22 10:26 | 50.80562 | 66.47190 | 38723 ft | 482 kts | 151° |
| 2026-04-22 10:26 | 50.75122 | 66.53393 | 38722 ft | 483 kts | 151° |
| 2026-04-22 10:27 | 50.69654 | 66.59605 | 38722 ft | 484 kts | 151° |
| 2026-04-22 10:27 | 50.64178 | 66.65808 | 38735 ft | 485 kts | 151° |
| 2026-04-22 10:28 | 50.58692 | 66.72011 | 38721 ft | 485 kts | 151° |
| 2026-04-22 10:28 | 50.53214 | 66.78191 | 38727 ft | 485 kts | 151° |
| 2026-04-22 10:29 | 50.47731 | 66.84344 | 38715 ft | 484 kts | 151° |
| 2026-04-22 10:29 | 50.42247 | 66.90486 | 38696 ft | 484 kts | 151° |
| 2026-04-22 10:30 | 50.36754 | 66.96575 | 38713 ft | 481 kts | 154° |
| 2026-04-22 10:30 | 50.30886 | 67.01360 | 38711 ft | 471 kts | 165° |
| 2026-04-22 10:31 | 50.24685 | 67.04347 | 38712 ft | 462 kts | 175° |
| 2026-04-22 10:31 | 50.18379 | 67.06179 | 38711 ft | 461 kts | 175° |
| 2026-04-22 10:32 | 50.12078 | 67.08058 | 38716 ft | 461 kts | 175° |
| 2026-04-22 10:32 | 50.05776 | 67.09938 | 38708 ft | 461 kts | 175° |
| 2026-04-22 10:33 | 49.99467 | 67.11816 | 38715 ft | 461 kts | 175° |
| 2026-04-22 10:33 | 49.93160 | 67.13682 | 38715 ft | 461 kts | 175° |
| 2026-04-22 10:34 | 49.86861 | 67.15544 | 38714 ft | 461 kts | 175° |
| 2026-04-22 10:34 | 49.80559 | 67.17401 | 38713 ft | 461 kts | 175° |
| 2026-04-22 10:35 | 49.74265 | 67.19251 | 38701 ft | 460 kts | 175° |
| 2026-04-22 10:35 | 49.67965 | 67.21094 | 38706 ft | 460 kts | 175° |
| 2026-04-22 10:36 | 49.61664 | 67.22938 | 38708 ft | 460 kts | 175° |
| 2026-04-22 10:36 | 49.55372 | 67.24774 | 38706 ft | 460 kts | 175° |
| 2026-04-22 10:37 | 49.45924 | 67.27514 | 38712 ft | 461 kts | 175° |
| 2026-04-22 10:38 | 49.39624 | 67.29336 | 38715 ft | 461 kts | 175° |
| 2026-04-22 10:38 | 49.33317 | 67.31158 | 38719 ft | 462 kts | 175° |
| 2026-04-22 10:39 | 49.27000 | 67.32981 | 38716 ft | 462 kts | 175° |
| 2026-04-22 10:39 | 49.20679 | 67.34798 | 38722 ft | 462 kts | 176° |
| 2026-04-22 10:40 | 49.14359 | 67.36608 | 38722 ft | 462 kts | 176° |
| 2026-04-22 10:40 | 49.08036 | 67.38414 | 38697 ft | 462 kts | 176° |
| 2026-04-22 10:41 | 49.01729 | 67.40214 | 38721 ft | 461 kts | 176° |
| 2026-04-22 10:41 | 48.95429 | 67.42007 | 38719 ft | 460 kts | 176° |
| 2026-04-22 10:42 | 48.89139 | 67.43790 | 38714 ft | 460 kts | 176° |
| 2026-04-22 10:42 | 48.82850 | 67.45569 | 38708 ft | 459 kts | 176° |
| 2026-04-22 10:43 | 48.76574 | 67.47338 | 38708 ft | 459 kts | 176° |
| 2026-04-22 10:43 | 48.70293 | 67.49107 | 38704 ft | 459 kts | 176° |
| 2026-04-22 10:44 | 48.64016 | 67.50868 | 38673 ft | 459 kts | 176° |
| 2026-04-22 10:44 | 48.57747 | 67.52624 | 38701 ft | 458 kts | 176° |
| 2026-04-22 10:45 | 48.51480 | 67.54375 | 38699 ft | 458 kts | 176° |
| 2026-04-22 10:45 | 48.45241 | 67.56112 | 38699 ft | 459 kts | 176° |
| 2026-04-22 10:46 | 48.38962 | 67.57860 | 38699 ft | 459 kts | 176° |
| 2026-04-22 10:46 | 48.32674 | 67.59604 | 38702 ft | 459 kts | 176° |
| 2026-04-22 10:47 | 48.26384 | 67.61338 | 38703 ft | 460 kts | 176° |
| 2026-04-22 10:47 | 48.20083 | 67.63077 | 38699 ft | 461 kts | 176° |
| 2026-04-22 10:48 | 48.13764 | 67.64813 | 38711 ft | 462 kts | 176° |
| 2026-04-22 10:48 | 48.07443 | 67.66550 | 38722 ft | 462 kts | 176° |
| 2026-04-22 10:49 | 48.01105 | 67.68289 | 38726 ft | 463 kts | 176° |
| 2026-04-22 10:49 | 47.94763 | 67.70020 | 38711 ft | 463 kts | 177° |
| 2026-04-22 10:50 | 47.88420 | 67.71746 | 38720 ft | 463 kts | 177° |
| 2026-04-22 10:50 | 47.82077 | 67.73470 | 38724 ft | 464 kts | 177° |
| 2026-04-22 10:51 | 47.75723 | 67.75195 | 38705 ft | 464 kts | 177° |
| 2026-04-22 10:51 | 47.69359 | 67.76742 | 38716 ft | 461 kts | 180° |
| 2026-04-22 10:52 | 47.62992 | 67.78004 | 38716 ft | 461 kts | 180° |
| 2026-04-22 10:52 | 47.56622 | 67.79280 | 38718 ft | 462 kts | 180° |
| 2026-04-22 10:53 | 47.50248 | 67.80558 | 38710 ft | 462 kts | 180° |
| 2026-04-22 10:53 | 47.43867 | 67.81833 | 38733 ft | 463 kts | 180° |
| 2026-04-22 10:54 | 47.37471 | 67.83108 | 38747 ft | 464 kts | 180° |
| 2026-04-22 10:54 | 47.31070 | 67.84385 | 38732 ft | 464 kts | 180° |
| 2026-04-22 10:55 | 47.24712 | 67.85643 | 38728 ft | 464 kts | 180° |
| 2026-04-22 10:55 | 47.18310 | 67.86909 | 38733 ft | 464 kts | 180° |
| 2026-04-22 10:56 | 47.11903 | 67.88176 | 38742 ft | 465 kts | 180° |
| 2026-04-22 10:56 | 47.05480 | 67.89438 | 38747 ft | 466 kts | 180° |
| 2026-04-22 10:57 | 46.99051 | 67.90700 | 38751 ft | 466 kts | 180° |
| 2026-04-22 10:57 | 46.92618 | 67.91960 | 38752 ft | 466 kts | 180° |
| 2026-04-22 10:58 | 46.86200 | 67.93217 | 38755 ft | 465 kts | 180° |
| 2026-04-22 10:58 | 46.79793 | 67.94464 | 38751 ft | 464 kts | 180° |
| 2026-04-22 10:59 | 46.73385 | 67.95709 | 38752 ft | 464 kts | 181° |
| 2026-04-22 10:59 | 46.67038 | 67.96940 | 38771 ft | 462 kts | 180° |
| 2026-04-22 11:00 | 46.60664 | 67.98175 | 38768 ft | 461 kts | 181° |
| 2026-04-22 11:00 | 46.54308 | 67.99402 | 38765 ft | 460 kts | 181° |
| 2026-04-22 11:01 | 46.47960 | 68.00624 | 38751 ft | 460 kts | 181° |
| 2026-04-22 11:01 | 46.41618 | 68.01846 | 38750 ft | 459 kts | 181° |
| 2026-04-22 11:02 | 46.35286 | 68.03056 | 38749 ft | 459 kts | 181° |
| 2026-04-22 11:02 | 46.28943 | 68.04266 | 38758 ft | 460 kts | 180° |
| 2026-04-22 11:03 | 46.22607 | 68.05474 | 38763 ft | 459 kts | 180° |
| 2026-04-22 11:03 | 46.16264 | 68.06679 | 38771 ft | 460 kts | 180° |
| 2026-04-22 11:04 | 46.10981 | 68.07684 | 38774 ft | 461 kts | 180° |
| 2026-04-22 11:04 | 46.04625 | 68.08893 | 38785 ft | 461 kts | 180° |
| 2026-04-22 11:05 | 45.98260 | 68.10093 | 38819 ft | 460 kts | 180° |
| 2026-04-22 11:05 | 45.91912 | 68.11290 | 38814 ft | 460 kts | 180° |
| 2026-04-22 11:06 | 45.85573 | 68.12482 | 38796 ft | 458 kts | 180° |
| 2026-04-22 11:06 | 45.79306 | 68.13658 | 38796 ft | 457 kts | 180° |
| 2026-04-22 11:07 | 45.73005 | 68.14836 | 38788 ft | 456 kts | 180° |
| 2026-04-22 11:07 | 45.66718 | 68.16012 | 38759 ft | 455 kts | 180° |
| 2026-04-22 11:08 | 45.60453 | 68.17181 | 38783 ft | 454 kts | 180° |
| 2026-04-22 11:08 | 45.54202 | 68.18347 | 38774 ft | 453 kts | 180° |
| 2026-04-22 11:09 | 45.47959 | 68.19507 | 38766 ft | 452 kts | 180° |
| 2026-04-22 11:09 | 45.41718 | 68.20658 | 38773 ft | 452 kts | 180° |
| 2026-04-22 11:10 | 45.35480 | 68.21811 | 38773 ft | 452 kts | 180° |
| 2026-04-22 11:10 | 45.29249 | 68.22964 | 38787 ft | 452 kts | 180° |
| 2026-04-22 11:11 | 45.23014 | 68.24113 | 38788 ft | 451 kts | 180° |
| 2026-04-22 11:11 | 45.16780 | 68.25258 | 38797 ft | 452 kts | 180° |
| 2026-04-22 11:12 | 45.10546 | 68.26400 | 38788 ft | 451 kts | 180° |
| 2026-04-22 11:12 | 45.04314 | 68.27539 | 38785 ft | 451 kts | 180° |
| 2026-04-22 11:13 | 44.98096 | 68.28675 | 38782 ft | 451 kts | 180° |
| 2026-04-22 11:13 | 44.91879 | 68.29808 | 38777 ft | 450 kts | 180° |
| 2026-04-22 11:14 | 44.85708 | 68.30926 | 38766 ft | 450 kts | 180° |
| 2026-04-22 11:14 | 44.79503 | 68.32050 | 38768 ft | 450 kts | 180° |
| 2026-04-22 11:15 | 44.73297 | 68.33173 | 38768 ft | 450 kts | 180° |
| 2026-04-22 11:15 | 44.67082 | 68.34295 | 38750 ft | 450 kts | 180° |
| 2026-04-22 11:16 | 44.60886 | 68.35409 | 38786 ft | 449 kts | 180° |
| 2026-04-22 11:16 | 44.54695 | 68.36521 | 38782 ft | 448 kts | 180° |
| 2026-04-22 11:17 | 44.48517 | 68.37626 | 38784 ft | 447 kts | 180° |
| 2026-04-22 11:17 | 44.42353 | 68.38731 | 38778 ft | 446 kts | 180° |
| 2026-04-22 11:18 | 44.36198 | 68.39828 | 38771 ft | 446 kts | 180° |
| 2026-04-22 11:18 | 44.30050 | 68.40920 | 38779 ft | 445 kts | 180° |
| 2026-04-22 11:19 | 44.23908 | 68.42016 | 38778 ft | 444 kts | 180° |
| 2026-04-22 11:19 | 44.17812 | 68.43096 | 38777 ft | 444 kts | 181° |
| 2026-04-22 11:20 | 44.11671 | 68.44182 | 38789 ft | 445 kts | 180° |
| 2026-04-22 11:20 | 44.05536 | 68.45265 | 38805 ft | 444 kts | 181° |
| 2026-04-22 11:21 | 43.99404 | 68.46345 | 38819 ft | 444 kts | 180° |
| 2026-04-22 11:21 | 43.93282 | 68.47422 | 38823 ft | 443 kts | 180° |
| 2026-04-22 11:22 | 43.87170 | 68.48498 | 38812 ft | 442 kts | 180° |
| 2026-04-22 11:22 | 43.81068 | 68.49565 | 38821 ft | 441 kts | 180° |
| 2026-04-22 11:23 | 43.74972 | 68.50631 | 38828 ft | 442 kts | 180° |
| 2026-04-22 11:23 | 43.68867 | 68.51693 | 38830 ft | 442 kts | 181° |
| 2026-04-22 11:24 | 43.62778 | 68.52755 | 38827 ft | 441 kts | 180° |
| 2026-04-22 11:24 | 43.56681 | 68.53817 | 38822 ft | 441 kts | 181° |
| 2026-04-22 11:25 | 43.50592 | 68.54868 | 38819 ft | 440 kts | 181° |
| 2026-04-22 11:25 | 43.44512 | 68.55920 | 38815 ft | 440 kts | 181° |
| 2026-04-22 11:26 | 43.38445 | 68.56965 | 38805 ft | 440 kts | 181° |
| 2026-04-22 11:26 | 43.32383 | 68.58085 | 38798 ft | 442 kts | 177° |
| 2026-04-22 11:27 | 43.26369 | 68.60031 | 38805 ft | 445 kts | 174° |
| 2026-04-22 11:27 | 43.20368 | 68.62070 | 38804 ft | 444 kts | 175° |
| 2026-04-22 11:28 | 43.14372 | 68.64090 | 38804 ft | 443 kts | 175° |
| 2026-04-22 11:28 | 43.08388 | 68.66090 | 38809 ft | 443 kts | 175° |
| 2026-04-22 11:29 | 43.02444 | 68.68072 | 38799 ft | 442 kts | 175° |
| 2026-04-22 11:29 | 42.96463 | 68.70065 | 38795 ft | 442 kts | 175° |
| 2026-04-22 11:30 | 42.90497 | 68.72051 | 38823 ft | 441 kts | 175° |
| 2026-04-22 11:30 | 42.84538 | 68.74024 | 38821 ft | 440 kts | 175° |
| 2026-04-22 11:31 | 42.78585 | 68.75993 | 38808 ft | 440 kts | 175° |
| 2026-04-22 11:31 | 42.72650 | 68.77951 | 38831 ft | 438 kts | 175° |
| 2026-04-22 11:32 | 42.66718 | 68.79850 | 38829 ft | 437 kts | 175° |
| 2026-04-22 11:32 | 42.60793 | 68.81718 | 38815 ft | 437 kts | 175° |
| 2026-04-22 11:33 | 42.55272 | 68.83456 | 38721 ft | 433 kts | 175° |
| 2026-04-22 11:33 | 42.52361 | 68.84377 | 38491 ft | 426 kts | 175° |
| 2026-04-22 11:33 | 42.49486 | 68.85284 | 38219 ft | 424 kts | 176° |
| 2026-04-22 11:33 | 42.46611 | 68.86182 | 37931 ft | 425 kts | 176° |
| 2026-04-22 11:34 | 42.43714 | 68.87085 | 37666 ft | 429 kts | 176° |
| 2026-04-22 11:34 | 42.40800 | 68.87995 | 37363 ft | 430 kts | 176° |
| 2026-04-22 11:34 | 42.37886 | 68.88908 | 37098 ft | 430 kts | 175° |
| 2026-04-22 11:34 | 42.34969 | 68.89822 | 36832 ft | 431 kts | 175° |
| 2026-04-22 11:35 | 42.32043 | 68.90737 | 36361 ft | 432 kts | 175° |
| 2026-04-22 11:35 | 42.29104 | 68.91650 | 35430 ft | 437 kts | 175° |
| 2026-04-22 11:35 | 42.26125 | 68.92575 | 34593 ft | 440 kts | 175° |
| 2026-04-22 11:35 | 42.23145 | 68.93506 | 33825 ft | 440 kts | 174° |
| 2026-04-22 11:36 | 42.20174 | 68.94435 | 33255 ft | 435 kts | 174° |
| 2026-04-22 11:36 | 42.17255 | 68.95349 | 32782 ft | 429 kts | 174° |
| 2026-04-22 11:36 | 42.14354 | 68.96264 | 32235 ft | 427 kts | 174° |
| 2026-04-22 11:36 | 42.11529 | 68.97159 | 31698 ft | 419 kts | 173° |
| 2026-04-22 11:37 | 42.08718 | 68.98022 | 31165 ft | 411 kts | 173° |
| 2026-04-22 11:37 | 42.05957 | 68.98867 | 30625 ft | 404 kts | 173° |
| 2026-04-22 11:37 | 42.03253 | 68.99658 | 30132 ft | 394 kts | 177° |
| 2026-04-22 11:37 | 42.00554 | 68.99900 | 29606 ft | 383 kts | 187° |
| 2026-04-22 11:38 | 41.97955 | 68.99467 | 29113 ft | 370 kts | 196° |
| 2026-04-22 11:38 | 41.95525 | 68.98431 | 28651 ft | 367 kts | 205° |
| 2026-04-22 11:38 | 41.91325 | 68.94745 | 27727 ft | 359 kts | 223° |
| 2026-04-22 11:39 | 41.89553 | 68.92369 | 27244 ft | 362 kts | 225° |
| 2026-04-22 11:39 | 41.87767 | 68.90021 | 26793 ft | 357 kts | 224° |
| 2026-04-22 11:39 | 41.85977 | 68.87749 | 26320 ft | 354 kts | 224° |
| 2026-04-22 11:39 | 41.84190 | 68.85480 | 25864 ft | 353 kts | 224° |
| 2026-04-22 11:40 | 41.82426 | 68.83214 | 25407 ft | 351 kts | 225° |
| 2026-04-22 11:40 | 41.80667 | 68.80915 | 24932 ft | 354 kts | 224° |
| 2026-04-22 11:40 | 41.78906 | 68.78627 | 24462 ft | 351 kts | 225° |
| 2026-04-22 11:40 | 41.77181 | 68.76358 | 24009 ft | 347 kts | 225° |
| 2026-04-22 11:41 | 41.75462 | 68.74103 | 23541 ft | 345 kts | 225° |
| 2026-04-22 11:41 | 41.73742 | 68.71861 | 23030 ft | 343 kts | 226° |
| 2026-04-22 11:41 | 41.72026 | 68.69669 | 22564 ft | 339 kts | 225° |
| 2026-04-22 11:41 | 41.70309 | 68.67489 | 22106 ft | 340 kts | 225° |
| 2026-04-22 11:42 | 41.68617 | 68.65291 | 21651 ft | 338 kts | 225° |
| 2026-04-22 11:42 | 41.66925 | 68.63117 | 21184 ft | 337 kts | 221° |
| 2026-04-22 11:42 | 41.64954 | 68.61424 | 20735 ft | 340 kts | 207° |
| 2026-04-22 11:42 | 41.62690 | 68.60468 | 20255 ft | 344 kts | 193° |
| 2026-04-22 11:43 | 41.60288 | 68.60319 | 19767 ft | 349 kts | 179° |
| 2026-04-22 11:43 | 41.57899 | 68.61020 | 19294 ft | 357 kts | 165° |
| 2026-04-22 11:43 | 41.55673 | 68.62572 | 18775 ft | 366 kts | 151° |
| 2026-04-22 11:43 | 41.53567 | 68.64477 | 18274 ft | 366 kts | 151° |
| 2026-04-22 11:44 | 41.51473 | 68.66334 | 17724 ft | 366 kts | 151° |
| 2026-04-22 11:44 | 41.49333 | 68.68233 | 17204 ft | 364 kts | 150° |
| 2026-04-22 11:44 | 41.47239 | 68.70096 | 16688 ft | 361 kts | 151° |
| 2026-04-22 11:44 | 41.45170 | 68.71919 | 16198 ft | 359 kts | 151° |
| 2026-04-22 11:45 | 41.43094 | 68.73741 | 15694 ft | 356 kts | 151° |
| 2026-04-22 11:45 | 41.41032 | 68.75549 | 15188 ft | 354 kts | 151° |
| 2026-04-22 11:45 | 41.38981 | 68.77349 | 14699 ft | 352 kts | 151° |
| 2026-04-22 11:45 | 41.36942 | 68.79139 | 14278 ft | 354 kts | 151° |
| 2026-04-22 11:46 | 41.34860 | 68.80964 | 13862 ft | 362 kts | 150° |
| 2026-04-22 11:46 | 41.32752 | 68.82832 | 13317 ft | 365 kts | 150° |
| 2026-04-22 11:46 | 41.30662 | 68.84679 | 12802 ft | 359 kts | 150° |
| 2026-04-22 11:46 | 41.28692 | 68.86700 | 12298 ft | 357 kts | 141° |
| 2026-04-22 11:47 | 41.27003 | 68.89082 | 11808 ft | 352 kts | 133° |
| 2026-04-22 11:47 | 41.25453 | 68.91576 | 11320 ft | 348 kts | 133° |
| 2026-04-22 11:47 | 41.23892 | 68.94031 | 10827 ft | 347 kts | 134° |
| 2026-04-22 11:47 | 41.22340 | 68.96447 | 10441 ft | 339 kts | 134° |
| 2026-04-22 11:48 | 41.20847 | 68.98792 | 10304 ft | 325 kts | 134° |
| 2026-04-22 11:48 | 41.19431 | 69.01049 | 10189 ft | 312 kts | 134° |
| 2026-04-22 11:48 | 41.18052 | 69.03186 | 10035 ft | 297 kts | 135° |
| 2026-04-22 11:48 | 41.16729 | 69.05245 | 9898 ft | 289 kts | 135° |
| 2026-04-22 11:49 | 41.15428 | 69.07275 | 9411 ft | 289 kts | 135° |
| 2026-04-22 11:49 | 41.14211 | 69.09406 | 9202 ft | 296 kts | 121° |
| 2026-04-22 11:49 | 41.13642 | 69.12028 | 8906 ft | 306 kts | 95° |
| 2026-04-22 11:49 | 41.13815 | 69.14892 | 8575 ft | 307 kts | 82° |
| 2026-04-22 11:50 | 41.14199 | 69.17622 | 8266 ft | 302 kts | 80° |
| 2026-04-22 11:50 | 41.14595 | 69.20344 | 7934 ft | 298 kts | 81° |
| 2026-04-22 11:50 | 41.14955 | 69.23028 | 7611 ft | 294 kts | 83° |
| 2026-04-22 11:50 | 41.15282 | 69.25687 | 7304 ft | 291 kts | 83° |
| 2026-04-22 11:51 | 41.15588 | 69.28323 | 6985 ft | 286 kts | 84° |
| 2026-04-22 11:51 | 41.15882 | 69.30922 | 6646 ft | 284 kts | 84° |
| 2026-04-22 11:51 | 41.16170 | 69.33498 | 6339 ft | 281 kts | 84° |
| 2026-04-22 11:51 | 41.16453 | 69.36038 | 6049 ft | 276 kts | 84° |
| 2026-04-22 11:52 | 41.16735 | 69.38543 | 5753 ft | 273 kts | 84° |
| 2026-04-22 11:52 | 41.17013 | 69.41023 | 5462 ft | 270 kts | 85° |
| 2026-04-22 11:52 | 41.17283 | 69.43475 | 5175 ft | 267 kts | 84° |
| 2026-04-22 11:52 | 41.17552 | 69.45905 | 4867 ft | 265 kts | 84° |
| 2026-04-22 11:53 | 41.17734 | 69.47537 | 4662 ft | 264 kts | 84° |
| 2026-04-22 11:53 | 41.18084 | 69.49964 | 4448 ft | 275 kts | 71° |
| 2026-04-22 11:53 | 41.19142 | 69.52111 | 4417 ft | 283 kts | 44° |
| 2026-04-22 11:53 | 41.20827 | 69.53406 | 4438 ft | 279 kts | 15° |
| 2026-04-22 11:54 | 41.22742 | 69.53550 | 4441 ft | 279 kts | 349° |
| 2026-04-22 11:54 | 41.24617 | 69.52943 | 4432 ft | 274 kts | 343° |
| 2026-04-22 11:54 | 41.26278 | 69.51941 | 4421 ft | 253 kts | 319° |
| 2026-04-22 11:54 | 41.27396 | 69.50272 | 4416 ft | 234 kts | 296° |
| 2026-04-22 11:55 | 41.27900 | 69.48309 | 4142 ft | 228 kts | 272° |
| 2026-04-22 11:55 | 41.27864 | 69.46223 | 3768 ft | 224 kts | 259° |
| 2026-04-22 11:55 | 41.27628 | 69.44241 | 3504 ft | 211 kts | 255° |
| 2026-04-22 11:55 | 41.27416 | 69.42306 | 3233 ft | 203 kts | 259° |
| 2026-04-22 11:56 | 41.27223 | 69.40595 | 2979 ft | 172 kts | 258° |
| 2026-04-22 11:56 | 41.27065 | 69.39158 | 2743 ft | 150 kts | 258° |
| 2026-04-22 11:56 | 41.26911 | 69.37793 | 2560 ft | 144 kts | 257° |
| 2026-04-22 11:56 | 41.26762 | 69.36475 | 2359 ft | 146 kts | 255° |
| 2026-04-22 11:57 | 41.26624 | 69.35176 | 2179 ft | 142 kts | 256° |
| 2026-04-22 11:57 | 41.26479 | 69.33844 | 2016 ft | 149 kts | 262° |
| 2026-04-22 11:57 | 41.26321 | 69.32472 | 1829 ft | 152 kts | 263° |
| 2026-04-22 11:57 | 41.26169 | 69.31102 | 1589 ft | 146 kts | 264° |
| 2026-04-22 11:58 | 41.26016 | 69.29731 | 1409 ft | 151 kts | 265° |
| 2026-04-22 11:58 | 41.25904 | 69.28534 | 1382 ft | 109 kts | 265° |
| 2026-04-22 11:58 | 41.25814 | 69.27703 | 1389 ft | 64 kts | 264° |
| 2026-04-22 11:58 | 41.25750 | 69.27295 | 1385 ft | 37 kts | 265° |